EGAALSZH

Guest
Details From EGAA - Belfast Aldergrove
To LSZH - Zurich
Flight Number -
Tags decoded
Created
Modified
Stats Distance 707 nm / 1,310 km
Max Altitude 0 ft / 0 m
Waypoints 4
Social Downloads 0
Likes 0
Share VATSIM

Download

Looking for another format? Having issues loading an existing format? Contact us
Advertisement - Login to hide

Notes

Requested: EGAA SOSIM UL15 BEGAR UN491 TRA LSZH Unmatched points: SOSIM UL15 UN491

Route

EGAA BEGAR TRA LSZH

ID Type Via Altitude Latitude Longitude Leg Dist Tot Dist Heading (true) Name
O EGAA APT - 0 ft / 0 m 54.65388˚ -6.22001˚ - 0 nm - Belfast Aldergrove
BEGAR FIX - 0 ft / 0 m 47.90833˚ 7.58333˚ 656 nm 656 nm 122° / 133° -
TRA VOR - 0 ft / 0 m 47.68950˚ 8.43695˚ 36 nm 692 nm 111° / 111° TRASADINGEN VOR-DME
O LSZH APT - 0 ft / 0 m 47.46349˚ 8.54996˚ 14 nm 707 nm 161° / 161° Zurich

Altitude Profile

Advertisement - Login to hide

Weather


0- 5 10 15 20 25 30 35+ Temperature / ° C

Clouds and Precipitation
Forecast for 2018-06-23 12:00 UTC. Updated 5 hours ago

Ground ~20,000 ft ~40,000 ft Winds

EGAA

Details ICAO EGAA (BFS)
Name Belfast Aldergrove
Region United Kingdom
Timezone Europe/London (UTC+1.0)
Stats Elevation 268 ft / 82 m (AMSL)
Location 54.653878° -6.220006°
Runways 2
Magnetic Variation 3.152° W

METAR

EGAA 231350Z 26005KT 200V340 9999 FEW025 18/09 Q1029

Decode

TAF

TAF EGAA 231058Z 2312/2412 VRB03KT 9999 SCT025= TAF EGBB 231054Z 2312/2412 31008KT CAVOK

Decode

Departure Runways

ID Width Length Bearing (true) Bearing (mag) Surface Threshold Offset Overrun Length
07 148 ft / 45 m 9,095 ft / 2,772 m 65.01° 68.16° Asphalt 0 ft / 0 m 0 ft / 0 m
17 148 ft / 45 m 5,896 ft / 1,797 m 161.98° 165.13° Asphalt 525 ft / 160 m 0 ft / 0 m
25 148 ft / 45 m 9,095 ft / 2,772 m 245.05° 248.20° Asphalt 0 ft / 0 m 0 ft / 0 m
35 148 ft / 45 m 5,896 ft / 1,797 m 341.99° 345.14° Asphalt 502 ft / 153 m 0 ft / 0 m

LSZH

Details ICAO LSZH (ZRH)
Name Zurich
Region Switzerland
Timezone Europe/Zurich (UTC+2.0)
Stats Elevation 1,416 ft / 432 m (AMSL)
Location 47.463489° 8.549964°
Runways 3
Magnetic Variation 2.409° E

METAR

LSZH 231350Z 03005KT 310V120 9999 FEW060 21/04 Q1023 NOSIG

Decode

TAF

TAF LSZH 231125Z 2312/2418 03007KT 9999 FEW040 TX22/2315Z TN09/2404Z TX20/2414Z PROB40 2312/2314 33007KT BECMG 2317/2319 CAVOK BECMG 2322/2401 VRB03KT BECMG 2407/2409 03005KT

Decode

Destination Runways

ID Width Length Bearing (true) Bearing (mag) Surface Threshold Offset Overrun Length
10 197 ft / 60 m 8,180 ft / 2,493 m 95.98° 93.57° Concrete 0 ft / 0 m 197 ft / 60 m
14 197 ft / 60 m 10,816 ft / 3,297 m 137.30° 134.89° Concrete 492 ft / 150 m 0 ft / 0 m
16 197 ft / 60 m 12,137 ft / 3,699 m 155.00° 152.59° Concrete 0 ft / 0 m 197 ft / 60 m
28 197 ft / 60 m 8,180 ft / 2,493 m 276.01° 273.60° Concrete 0 ft / 0 m 197 ft / 60 m
32 197 ft / 60 m 10,816 ft / 3,297 m 317.32° 314.91° Concrete 0 ft / 0 m 197 ft / 60 m
34 197 ft / 60 m 12,137 ft / 3,699 m 335.01° 332.60° Concrete 1,542 ft / 470 m 0 ft / 0 m

Approach Navaids

Runway Type Ident Frequency Range Bearing (true) Bearing (mag) Slope Elevation
14 Localiser IKL 108.30 MHz 18 nm / 33 km 137.33° 134.92° - 1,460 ft / 445 m (AMSL)
14 Glidescope IKL 108.30 MHz 10 nm / 19 km 137.31° 134.90° 3.00° 1,460 ft / 445 m (AMSL)
14 DME IKL 108.30 MHz 18 nm / 33 km - - - 1,460 ft / 445 m (AMSL)
16 Localiser IZH 110.50 MHz 18 nm / 33 km 154.99° 152.58° - 1,400 ft / 427 m (AMSL)
16 Glidescope IZH 110.50 MHz 10 nm / 19 km 155.00° 152.60° 3.00° 1,400 ft / 427 m (AMSL)
16 DME IZH 110.50 MHz 18 nm / 33 km - - - 1,400 ft / 427 m (AMSL)
28 Localiser IZW 109.75 MHz 18 nm / 33 km 276.00° 273.59° - 1,416 ft / 432 m (AMSL)
28 Glidescope IZW 109.75 MHz 10 nm / 19 km 276.86° 274.45° 3.30° 1,416 ft / 432 m (AMSL)
28 DME IZW 109.75 MHz 18 nm / 33 km - - - 1,416 ft / 432 m (AMSL)
34 Localiser IZS 110.75 MHz 18 nm / 33 km 335.06° 332.65° - 1,416 ft / 432 m (AMSL)
34 Glidescope IZS 110.75 MHz 10 nm / 19 km 335.00° 332.60° 3.30° 1,416 ft / 432 m (AMSL)
34 DME IZS 110.75 MHz 18 nm / 33 km - - - 1,410 ft / 430 m (AMSL)

Popular Alternatives